createdAt,value
2018-09-13T00:00:57.035Z,9.78
2018-09-13T00:04:21.469Z,12.18
2018-09-13T00:07:45.863Z,11.93
2018-09-13T00:11:10.257Z,12.47
2018-09-13T00:14:34.627Z,12.23
2018-09-13T00:17:59.012Z,12.53
2018-09-13T00:21:23.459Z,12.65
2018-09-13T00:24:47.890Z,11.40
2018-09-13T00:28:12.327Z,11.50
2018-09-13T00:31:36.792Z,11.45
2018-09-13T00:35:01.206Z,11.83
2018-09-13T00:38:25.589Z,10.90
2018-09-13T00:41:49.971Z,11.83
2018-09-13T00:45:14.367Z,11.68
2018-09-13T00:48:38.834Z,11.97
2018-09-13T00:52:03.232Z,10.18
2018-09-13T00:55:27.708Z,11.12
2018-09-13T00:58:52.161Z,10.58
2018-09-13T01:02:16.539Z,11.03
2018-09-13T01:05:40.984Z,11.35
2018-09-13T01:09:08.496Z,11.80
2018-09-13T01:12:32.873Z,11.50
2018-09-13T01:15:57.337Z,11.48
2018-09-13T01:19:21.785Z,13.13
2018-09-13T01:22:46.244Z,11.30
2018-09-13T01:26:10.654Z,11.95
2018-09-13T01:29:35.084Z,11.03
2018-09-13T01:32:59.474Z,12.78
2018-09-13T01:36:23.899Z,12.10
2018-09-13T01:39:48.631Z,14.60
2018-09-13T01:43:13.060Z,16.70
2018-09-13T01:46:37.480Z,15.78
2018-09-13T01:50:01.882Z,17.80
2018-09-13T01:53:26.310Z,21.12
2018-09-13T01:56:50.733Z,21.25
2018-09-13T02:00:15.108Z,22.73
2018-09-13T02:03:39.520Z,20.52
2018-09-13T02:07:03.920Z,21.68
2018-09-13T02:10:28.353Z,20.77
2018-09-13T02:13:52.757Z,21.23
2018-09-13T02:17:17.145Z,20.45
2018-09-13T02:20:41.575Z,17.67
2018-09-13T02:24:06.078Z,18.75
2018-09-13T02:27:30.505Z,18.48
2018-09-13T02:30:54.915Z,20.52
2018-09-13T02:34:19.293Z,20.55
2018-09-13T02:37:43.723Z,20.62
2018-09-13T02:41:08.179Z,19.87
2018-09-13T02:44:32.637Z,18.57
2018-09-13T02:47:57.182Z,21.07
2018-09-13T02:51:21.563Z,19.10
2018-09-13T02:54:46.543Z,19.32
2018-09-13T02:58:10.927Z,20.12
2018-09-13T03:01:35.307Z,18.15
2018-09-13T03:04:59.766Z,18.75
2018-09-13T03:08:24.270Z,18.50
2018-09-13T03:11:48.592Z,20.43
2018-09-13T03:15:13.050Z,19.32
2018-09-13T03:18:37.507Z,21.05
2018-09-13T03:22:01.949Z,22.95
2018-09-13T03:25:26.321Z,20.95
2018-09-13T03:28:51.143Z,21.07
2018-09-13T03:32:15.555Z,19.87
2018-09-13T03:35:39.975Z,19.50
2018-09-13T03:39:06.532Z,17.65
2018-09-13T03:42:30.932Z,16.60
2018-09-13T03:45:55.356Z,17.37
2018-09-13T03:49:19.742Z,17.82
2018-09-13T03:52:44.136Z,16.85
2018-09-13T03:56:14.845Z,17.95
2018-09-13T03:59:39.285Z,18.12
2018-09-13T04:03:03.686Z,17.32
2018-09-13T04:06:28.156Z,16.95
2018-09-13T04:09:52.617Z,16.90
2018-09-13T04:13:17.021Z,18.82
2018-09-13T04:16:41.509Z,17.57
2018-09-13T04:20:05.966Z,17.62
2018-09-13T04:23:30.426Z,16.62
2018-09-13T04:26:54.819Z,17.30
2018-09-13T04:30:19.244Z,15.18
2018-09-13T04:33:43.609Z,14.90
2018-09-13T04:37:08.747Z,14.55
2018-09-13T04:40:33.152Z,13.32
2018-09-13T04:43:57.608Z,15.95
2018-09-13T04:47:21.984Z,14.23
2018-09-13T04:50:46.598Z,15.10
2018-09-13T04:54:11.050Z,19.10
2018-09-13T04:57:35.616Z,18.02
2018-09-13T05:01:00.081Z,18.07
2018-09-13T05:04:25.548Z,20.80
2018-09-13T05:07:50.069Z,22.00
2018-09-13T05:11:14.482Z,17.35
2018-09-13T05:14:38.926Z,18.10
2018-09-13T05:18:03.468Z,19.60
2018-09-13T05:21:27.904Z,19.57
2018-09-13T05:24:52.328Z,23.10
2018-09-13T05:28:16.762Z,19.57
2018-09-13T05:31:41.235Z,18.02
2018-09-13T05:35:05.700Z,17.00
2018-09-13T05:38:30.195Z,16.93
2018-09-13T05:41:54.593Z,16.52
2018-09-13T05:45:19.002Z,16.30
2018-09-13T05:48:43.427Z,15.72
2018-09-13T05:52:07.989Z,15.60
2018-09-13T05:55:32.401Z,16.30
2018-09-13T05:58:57.470Z,17.05
2018-09-13T06:02:21.978Z,17.10
2018-09-13T06:05:46.457Z,17.20
2018-09-13T06:09:10.954Z,18.00
2018-09-13T06:12:35.380Z,20.65
2018-09-13T06:16:00.633Z,18.77
2018-09-13T06:19:28.805Z,21.20
2018-09-13T06:23:01.132Z,21.52
2018-09-13T06:26:25.623Z,20.65
2018-09-13T06:29:50.120Z,22.90
2018-09-13T06:33:14.617Z,24.60
2018-09-13T06:36:39.106Z,25.32
2018-09-13T06:40:03.508Z,23.65
2018-09-13T06:43:27.908Z,23.87
2018-09-13T06:46:52.344Z,22.62
2018-09-13T06:50:16.759Z,25.15
2018-09-13T06:53:41.211Z,26.27
2018-09-13T06:57:05.697Z,25.97
2018-09-13T07:00:30.176Z,27.37
2018-09-13T07:03:54.591Z,27.17
2018-09-13T07:07:19.157Z,27.48
2018-09-13T07:10:43.685Z,28.57
2018-09-13T07:14:08.120Z,30.82
2018-09-13T07:17:32.567Z,30.52
2018-09-13T07:20:57.855Z,29.55
2018-09-13T07:24:22.275Z,28.10
2018-09-13T07:27:46.744Z,30.97
2018-09-13T07:31:11.169Z,33.55
2018-09-13T07:34:35.597Z,30.23
2018-09-13T07:38:00.022Z,30.23
2018-09-13T07:41:24.467Z,32.48
2018-09-13T07:44:48.993Z,31.65
2018-09-13T07:48:13.458Z,31.37
2018-09-13T07:51:37.906Z,31.35
2018-09-13T07:55:02.344Z,34.85
2018-09-13T07:58:26.742Z,30.23
2018-09-13T08:01:51.136Z,25.57
2018-09-13T08:05:15.541Z,25.70
2018-09-13T08:08:39.970Z,26.10
2018-09-13T08:12:04.566Z,28.60
2018-09-13T08:15:28.879Z,26.93
2018-09-13T08:18:53.319Z,27.40
2018-09-13T08:22:17.740Z,26.37
2018-09-13T08:25:42.243Z,27.13
2018-09-13T08:29:06.649Z,25.23
2018-09-13T08:32:31.050Z,25.08
2018-09-13T08:35:55.504Z,27.70
2018-09-13T08:39:19.878Z,31.00
2018-09-13T08:42:44.268Z,32.03
2018-09-13T08:46:08.687Z,30.82
2018-09-13T08:49:33.134Z,33.60
2018-09-13T08:52:57.582Z,37.73
2018-09-13T08:56:22.023Z,39.08
2018-09-13T08:59:46.457Z,41.30
2018-09-13T09:03:10.929Z,41.23
2018-09-13T09:06:35.346Z,41.58
2018-09-13T09:09:59.788Z,37.83
2018-09-13T09:13:24.234Z,37.40
2018-09-13T09:16:48.683Z,33.98
2018-09-13T09:20:13.136Z,33.38
2018-09-13T09:23:37.613Z,31.02
2018-09-13T09:27:02.076Z,34.15
2018-09-13T09:30:26.519Z,37.38
2018-09-13T09:33:50.971Z,37.58
2018-09-13T09:37:15.418Z,37.98
2018-09-13T09:40:39.911Z,35.83
2018-09-13T09:44:04.386Z,33.63
2018-09-13T09:47:28.833Z,38.73
2018-09-13T09:50:53.261Z,32.55
2018-09-13T09:54:17.713Z,34.85
2018-09-13T09:57:43.653Z,29.85
2018-09-13T10:01:13.410Z,33.67
2018-09-13T10:04:37.945Z,32.53
2018-09-13T10:08:02.355Z,34.38
2018-09-13T10:11:26.885Z,31.93
2018-09-13T10:14:56.681Z,32.55
2018-09-13T10:18:26.376Z,31.07
2018-09-13T10:21:56.064Z,28.42
2018-09-13T10:25:25.575Z,26.55
2018-09-13T10:28:55.235Z,22.02
2018-09-13T10:32:24.822Z,21.60
2018-09-13T10:35:54.520Z,18.20
2018-09-13T10:39:24.099Z,15.18
2018-09-13T10:42:53.747Z,12.75
2018-09-13T10:46:25.030Z,9.38
2018-09-13T10:49:54.565Z,8.80
2018-09-13T10:53:26.719Z,10.43
2018-09-13T10:56:51.144Z,9.08
2018-09-13T11:00:15.683Z,7.53
2018-09-13T11:03:40.150Z,9.73
2018-09-13T11:07:04.594Z,8.15
2018-09-13T11:10:30.053Z,7.90
2018-09-13T11:13:58.919Z,8.75
2018-09-13T11:17:24.544Z,9.80
2018-09-13T11:20:49.000Z,7.83
2018-09-13T11:24:13.460Z,9.30
2018-09-13T11:27:37.867Z,10.20
2018-09-13T11:31:02.279Z,14.85
2018-09-13T11:34:26.809Z,13.68
2018-09-13T11:37:51.284Z,11.18
2018-09-13T11:41:15.704Z,8.98
2018-09-13T11:44:40.151Z,8.88
2018-09-13T11:48:04.635Z,8.88
2018-09-13T11:51:29.104Z,8.48
2018-09-13T11:54:53.521Z,13.38
2018-09-13T11:58:17.949Z,17.60
2018-09-13T12:01:42.379Z,13.98
2018-09-13T12:05:06.792Z,10.75
2018-09-13T12:08:31.253Z,6.87
2018-09-13T12:11:55.687Z,6.30
2018-09-13T12:15:20.121Z,6.08
2018-09-13T12:18:44.532Z,6.85
2018-09-13T12:22:08.965Z,6.40
2018-09-13T12:25:33.417Z,6.83
2018-09-13T12:29:21.891Z,5.97
2018-09-13T12:32:46.511Z,8.30
2018-09-13T12:36:11.171Z,8.65
2018-09-13T12:39:35.665Z,7.03
2018-09-13T12:43:00.097Z,6.25
2018-09-13T12:46:24.474Z,6.72
2018-09-13T12:49:48.996Z,6.90
2018-09-13T12:53:13.522Z,6.53
2018-09-13T12:56:38.078Z,6.25
2018-09-13T13:00:02.465Z,6.92
2018-09-13T13:03:26.867Z,7.10
2018-09-13T13:06:51.720Z,7.53
2018-09-13T13:10:16.141Z,8.48
2018-09-13T13:13:40.570Z,10.50
2018-09-13T13:17:05.047Z,9.93
2018-09-13T13:20:29.489Z,8.18
2018-09-13T13:23:53.913Z,6.60
2018-09-13T13:27:18.460Z,6.53
2018-09-13T13:30:42.968Z,5.58
2018-09-13T13:34:07.609Z,5.03
2018-09-13T13:37:32.020Z,5.70
2018-09-13T13:40:56.440Z,7.83
2018-09-13T13:44:20.862Z,7.10
2018-09-13T13:47:45.314Z,6.05
2018-09-13T13:51:09.794Z,5.47
2018-09-13T13:54:34.198Z,4.30
2018-09-13T13:57:58.608Z,4.90
2018-09-13T14:01:23.069Z,4.58
2018-09-13T14:04:47.448Z,3.87
2018-09-13T14:08:11.895Z,3.40
2018-09-13T14:11:36.346Z,3.47
2018-09-13T14:15:00.748Z,3.30
2018-09-13T14:18:25.239Z,4.10
2018-09-13T14:21:49.693Z,3.72
2018-09-13T14:25:14.175Z,4.10
2018-09-13T14:28:38.602Z,4.15
2018-09-13T14:32:03.149Z,4.67
2018-09-13T14:35:27.640Z,4.28
2018-09-13T14:38:52.113Z,4.65
2018-09-13T14:42:16.587Z,4.53
2018-09-13T14:45:41.027Z,4.50
2018-09-13T14:49:05.706Z,5.25
2018-09-13T14:52:30.136Z,4.22
2018-09-13T14:55:54.551Z,4.42
2018-09-13T14:59:19.045Z,4.78
2018-09-13T15:02:43.586Z,3.60
2018-09-13T15:06:08.038Z,3.12
2018-09-13T15:09:32.487Z,3.27
2018-09-13T15:12:57.133Z,3.52
2018-09-13T15:16:22.320Z,3.90
2018-09-13T15:19:46.774Z,3.40
2018-09-13T15:23:11.276Z,4.40
2018-09-13T15:26:35.804Z,4.45
2018-09-13T15:30:00.256Z,3.62
2018-09-13T15:33:24.660Z,3.55
2018-09-13T15:36:49.152Z,3.15
2018-09-13T15:40:13.605Z,2.47
2018-09-13T15:43:38.158Z,2.95
2018-09-13T15:47:02.966Z,2.50
2018-09-13T15:50:27.436Z,2.10
2018-09-13T15:53:51.887Z,2.33
2018-09-13T15:57:16.415Z,2.27
2018-09-13T16:00:41.036Z,2.90
2018-09-13T16:04:05.557Z,2.70
2018-09-13T16:07:30.147Z,2.52
2018-09-13T16:10:54.578Z,2.37
2018-09-13T16:14:18.988Z,2.08
2018-09-13T16:17:43.464Z,1.65
2018-09-13T16:21:08.548Z,2.77
2018-09-13T16:24:32.978Z,2.22
2018-09-13T16:27:57.436Z,2.20
2018-09-13T16:31:22.059Z,2.42
2018-09-13T16:34:46.613Z,2.37
2018-09-13T16:38:16.316Z,2.02
2018-09-13T16:41:45.883Z,1.87
2018-09-13T16:45:11.031Z,1.95
2018-09-13T16:48:40.714Z,2.10
2018-09-13T16:52:05.216Z,2.65
2018-09-13T16:55:29.786Z,2.30
2018-09-13T16:58:54.242Z,2.33
2018-09-13T17:02:18.747Z,2.33
2018-09-13T17:05:43.271Z,2.20
2018-09-13T17:09:10.179Z,2.25
2018-09-13T17:12:34.662Z,2.20
2018-09-13T17:15:59.935Z,2.10
2018-09-13T17:19:24.441Z,1.85
2018-09-13T17:22:49.001Z,2.17
2018-09-13T17:26:13.550Z,2.17
2018-09-13T17:29:38.075Z,2.45
2018-09-13T17:33:02.557Z,2.02
2018-09-13T17:36:27.123Z,2.27
2018-09-13T17:39:51.579Z,2.62
2018-09-13T17:43:16.043Z,2.47
2018-09-13T17:46:41.282Z,2.85
2018-09-13T17:50:06.663Z,2.33
2018-09-13T17:53:31.153Z,2.55
2018-09-13T17:56:55.704Z,3.35
2018-09-13T18:00:20.228Z,3.35
2018-09-13T18:03:44.882Z,3.60
2018-09-13T18:07:09.364Z,3.40
2018-09-13T18:10:33.889Z,2.70
2018-09-13T18:13:58.445Z,2.85
2018-09-13T18:17:22.944Z,3.35
2018-09-13T18:20:48.069Z,3.27
2018-09-13T18:24:12.564Z,3.52
2018-09-13T18:27:36.996Z,3.35
2018-09-13T18:31:01.659Z,2.70
2018-09-13T18:34:26.126Z,2.60
2018-09-13T18:37:50.648Z,3.10
2018-09-13T18:41:15.203Z,3.37
2018-09-13T18:44:39.663Z,3.62
2018-09-13T18:48:04.142Z,3.60
2018-09-13T18:51:28.929Z,3.60
2018-09-13T18:54:53.414Z,4.20
2018-09-13T18:58:17.955Z,3.92
2018-09-13T19:01:42.394Z,4.05
2018-09-13T19:05:07.184Z,3.72
2018-09-13T19:08:31.693Z,3.17
2018-09-13T19:11:56.147Z,3.65
2018-09-13T19:15:20.628Z,3.02
2018-09-13T19:18:45.113Z,3.47
2018-09-13T19:22:09.535Z,3.20
2018-09-13T19:25:33.998Z,3.80
2018-09-13T19:28:58.455Z,3.37
2018-09-13T19:32:22.897Z,3.90
2018-09-13T19:35:47.326Z,3.52
2018-09-13T19:39:12.943Z,3.05
2018-09-13T19:42:37.455Z,3.20
2018-09-13T19:46:02.248Z,3.72
2018-09-13T19:49:26.795Z,3.75
2018-09-13T19:52:51.271Z,3.72
2018-09-13T19:56:15.715Z,4.03
2018-09-13T19:59:40.164Z,4.33
2018-09-13T20:03:04.612Z,3.60
2018-09-13T20:06:29.013Z,4.35
2018-09-13T20:09:53.469Z,3.87
2018-09-13T20:13:18.020Z,4.53
2018-09-13T20:16:42.492Z,4.08
2018-09-13T20:20:07.380Z,4.80
2018-09-13T20:23:31.880Z,4.30
2018-09-13T20:26:56.372Z,4.37
2018-09-13T20:30:20.922Z,4.10
2018-09-13T20:33:45.345Z,4.33
2018-09-13T20:37:09.927Z,3.80
2018-09-13T20:40:34.339Z,5.07
2018-09-13T20:43:59.014Z,4.47
2018-09-13T20:47:23.420Z,4.13
2018-09-13T20:50:47.806Z,4.55
2018-09-13T20:54:12.218Z,4.37
2018-09-13T20:57:36.645Z,5.07
2018-09-13T21:01:01.042Z,5.43
2018-09-13T21:04:25.458Z,5.33
2018-09-13T21:07:49.861Z,5.23
2018-09-13T21:11:14.321Z,5.80
2018-09-13T21:14:38.734Z,5.75
2018-09-13T21:18:03.251Z,6.03
2018-09-13T21:21:27.788Z,5.23
2018-09-13T21:24:52.192Z,4.83
2018-09-13T21:28:16.647Z,4.90
2018-09-13T21:31:41.160Z,4.47
2018-09-13T21:35:05.582Z,4.17
2018-09-13T21:38:30.006Z,4.63
2018-09-13T21:41:54.424Z,4.15
2018-09-13T21:45:18.845Z,4.05
2018-09-13T21:48:43.240Z,3.87
2018-09-13T21:52:07.837Z,3.17
2018-09-13T21:55:32.251Z,3.57
2018-09-13T21:58:56.749Z,3.77
2018-09-13T22:02:21.050Z,3.90
2018-09-13T22:05:45.442Z,3.83
2018-09-13T22:09:10.926Z,3.90
2018-09-13T22:12:35.346Z,4.27
2018-09-13T22:16:00.105Z,4.47
2018-09-13T22:19:24.526Z,3.97
2018-09-13T22:22:48.971Z,4.83
2018-09-13T22:29:55.705Z,4.37
2018-09-13T22:33:20.104Z,4.77
2018-09-13T22:36:44.543Z,4.60
2018-09-13T22:40:09.080Z,4.77
2018-09-13T22:43:38.711Z,4.53
2018-09-13T22:47:03.131Z,3.87
2018-09-13T22:50:27.651Z,4.53
2018-09-13T22:53:52.160Z,3.90
2018-09-13T22:57:16.582Z,5.10
2018-09-13T23:00:41.046Z,5.23
2018-09-13T23:04:05.459Z,5.30
2018-09-13T23:07:32.390Z,4.53
2018-09-13T23:10:56.825Z,5.00
2018-09-13T23:14:21.254Z,5.80
2018-09-13T23:17:46.323Z,5.83
2018-09-13T23:21:11.950Z,4.77
2018-09-13T23:24:36.338Z,5.23
2018-09-13T23:28:00.873Z,5.70
2018-09-13T23:31:25.327Z,6.47
2018-09-13T23:34:49.734Z,6.97
2018-09-13T23:38:14.264Z,7.00
2018-09-13T23:41:39.620Z,6.40
2018-09-13T23:45:04.076Z,6.00
2018-09-13T23:48:28.502Z,6.47
2018-09-13T23:51:53.017Z,5.73
2018-09-13T23:55:17.438Z,5.93
2018-09-13T23:58:41.874Z,6.10
